sensor_id;sensor_type;location;lat;lon;timestamp;temperature;humidity
3005;DHT22;1512;51.486;6.610;2024-02-23T00:02:30;6.10;99.90
3005;DHT22;1512;51.486;6.610;2024-02-23T00:06:38;6.10;99.90
3005;DHT22;1512;51.486;6.610;2024-02-23T00:10:47;6.10;1.00
3005;DHT22;1512;51.486;6.610;2024-02-23T00:14:57;6.00;99.90
3005;DHT22;1512;51.486;6.610;2024-02-23T00:19:25;6.10;99.90
3005;DHT22;1512;51.486;6.610;2024-02-23T00:23:34;6.10;99.90
3005;DHT22;1512;51.486;6.610;2024-02-23T00:27:42;6.10;59.80
3005;DHT22;1512;51.486;6.610;2024-02-23T00:31:51;6.00;11.00
3005;DHT22;1512;51.486;6.610;2024-02-23T00:36:00;6.00;99.90
3005;DHT22;1512;51.486;6.610;2024-02-23T00:40:09;6.20;99.90
3005;DHT22;1512;51.486;6.610;2024-02-23T00:44:18;6.20;99.90
3005;DHT22;1512;51.486;6.610;2024-02-23T00:48:27;6.20;48.30
3005;DHT22;1512;51.486;6.610;2024-02-23T00:52:36;6.20;10.80
3005;DHT22;1512;51.486;6.610;2024-02-23T00:56:44;6.30;33.60
3005;DHT22;1512;51.486;6.610;2024-02-23T01:00:55;6.30;1.00
3005;DHT22;1512;51.486;6.610;2024-02-23T01:05:23;6.30;1.00
3005;DHT22;1512;51.486;6.610;2024-02-23T01:09:32;6.20;1.00
3005;DHT22;1512;51.486;6.610;2024-02-23T01:13:40;6.30;1.00
3005;DHT22;1512;51.486;6.610;2024-02-23T01:17:49;6.20;1.00
3005;DHT22;1512;51.486;6.610;2024-02-23T01:21:58;6.20;1.00
3005;DHT22;1512;51.486;6.610;2024-02-23T01:26:12;6.20;1.00
3005;DHT22;1512;51.486;6.610;2024-02-23T01:30:21;6.30;1.00
3005;DHT22;1512;51.486;6.610;2024-02-23T01:34:29;6.30;1.00
3005;DHT22;1512;51.486;6.610;2024-02-23T01:38:38;6.30;1.00
3005;DHT22;1512;51.486;6.610;2024-02-23T01:42:47;6.20;1.00
3005;DHT22;1512;51.486;6.610;2024-02-23T01:46:55;6.30;1.00
3005;DHT22;1512;51.486;6.610;2024-02-23T01:51:04;6.20;1.00
3005;DHT22;1512;51.486;6.610;2024-02-23T01:55:13;6.20;1.00
3005;DHT22;1512;51.486;6.610;2024-02-23T01:59:23;6.20;1.00
3005;DHT22;1512;51.486;6.610;2024-02-23T02:03:33;6.20;1.00
3005;DHT22;1512;51.486;6.610;2024-02-23T02:07:42;6.30;1.00
3005;DHT22;1512;51.486;6.610;2024-02-23T02:11:51;6.30;1.00
3005;DHT22;1512;51.486;6.610;2024-02-23T02:16:01;6.30;1.00
3005;DHT22;1512;51.486;6.610;2024-02-23T02:20:12;6.40;1.00
3005;DHT22;1512;51.486;6.610;2024-02-23T02:24:21;6.40;1.00
3005;DHT22;1512;51.486;6.610;2024-02-23T02:28:30;6.40;1.00
3005;DHT22;1512;51.486;6.610;2024-02-23T02:32:58;6.30;1.00
3005;DHT22;1512;51.486;6.610;2024-02-23T02:37:07;6.30;1.00
3005;DHT22;1512;51.486;6.610;2024-02-23T02:41:17;6.20;1.00
3005;DHT22;1512;51.486;6.610;2024-02-23T02:45:27;6.10;1.00
3005;DHT22;1512;51.486;6.610;2024-02-23T02:49:35;6.00;1.00
3005;DHT22;1512;51.486;6.610;2024-02-23T02:53:44;6.00;1.00
3005;DHT22;1512;51.486;6.610;2024-02-23T02:57:53;6.00;1.00
3005;DHT22;1512;51.486;6.610;2024-02-23T03:02:01;6.00;1.00
3005;DHT22;1512;51.486;6.610;2024-02-23T03:06:10;6.00;1.00
3005;DHT22;1512;51.486;6.610;2024-02-23T03:10:19;5.90;1.00
3005;DHT22;1512;51.486;6.610;2024-02-23T03:14:27;5.90;1.00
3005;DHT22;1512;51.486;6.610;2024-02-23T03:18:36;5.90;1.00
3005;DHT22;1512;51.486;6.610;2024-02-23T03:23:04;5.80;1.00
3005;DHT22;1512;51.486;6.610;2024-02-23T03:27:16;5.80;1.00
3005;DHT22;1512;51.486;6.610;2024-02-23T03:31:25;5.80;1.00
3005;DHT22;1512;51.486;6.610;2024-02-23T03:35:34;5.80;1.00
3005;DHT22;1512;51.486;6.610;2024-02-23T03:39:42;5.80;1.00
3005;DHT22;1512;51.486;6.610;2024-02-23T03:43:51;5.80;1.00
3005;DHT22;1512;51.486;6.610;2024-02-23T03:48:00;5.80;1.00
3005;DHT22;1512;51.486;6.610;2024-02-23T03:52:10;5.80;1.00
3005;DHT22;1512;51.486;6.610;2024-02-23T03:56:18;5.80;1.00
3005;DHT22;1512;51.486;6.610;2024-02-23T04:00:27;5.80;1.00
3005;DHT22;1512;51.486;6.610;2024-02-23T04:04:36;5.80;1.00
3005;DHT22;1512;51.486;6.610;2024-02-23T04:08:45;5.80;1.00
3005;DHT22;1512;51.486;6.610;2024-02-23T04:12:55;5.80;1.00
3005;DHT22;1512;51.486;6.610;2024-02-23T04:17:04;5.80;1.00
3005;DHT22;1512;51.486;6.610;2024-02-23T04:21:12;5.80;1.00
3005;DHT22;1512;51.486;6.610;2024-02-23T04:25:23;5.80;1.00
3005;DHT22;1512;51.486;6.610;2024-02-23T04:29:31;5.90;1.00
3005;DHT22;1512;51.486;6.610;2024-02-23T04:33:41;5.80;1.00
3005;DHT22;1512;51.486;6.610;2024-02-23T04:37:49;5.90;1.00
3005;DHT22;1512;51.486;6.610;2024-02-23T04:41:58;5.90;1.00
3005;DHT22;1512;51.486;6.610;2024-02-23T04:46:07;5.90;1.00
3005;DHT22;1512;51.486;6.610;2024-02-23T04:50:16;5.90;1.00
3005;DHT22;1512;51.486;6.610;2024-02-23T04:54:25;5.90;1.00
3005;DHT22;1512;51.486;6.610;2024-02-23T04:58:33;5.90;1.00
3005;DHT22;1512;51.486;6.610;2024-02-23T05:02:42;5.90;1.00
3005;DHT22;1512;51.486;6.610;2024-02-23T05:06:51;5.80;1.00
3005;DHT22;1512;51.486;6.610;2024-02-23T05:10:59;5.80;1.00
3005;DHT22;1512;51.486;6.610;2024-02-23T05:15:09;5.80;1.00
3005;DHT22;1512;51.486;6.610;2024-02-23T05:19:17;5.80;1.00
3005;DHT22;1512;51.486;6.610;2024-02-23T05:23:26;5.80;1.00
3005;DHT22;1512;51.486;6.610;2024-02-23T05:27:35;5.80;1.00
3005;DHT22;1512;51.486;6.610;2024-02-23T05:31:53;5.70;1.00
3005;DHT22;1512;51.486;6.610;2024-02-23T05:36:03;5.80;1.00
3005;DHT22;1512;51.486;6.610;2024-02-23T05:40:11;5.80;1.00
3005;DHT22;1512;51.486;6.610;2024-02-23T05:44:20;5.70;1.00
3005;DHT22;1512;51.486;6.610;2024-02-23T05:48:30;5.70;1.00
3005;DHT22;1512;51.486;6.610;2024-02-23T05:52:38;5.70;1.00
3005;DHT22;1512;51.486;6.610;2024-02-23T05:56:47;5.70;1.00
3005;DHT22;1512;51.486;6.610;2024-02-23T06:00:56;5.70;1.00
3005;DHT22;1512;51.486;6.610;2024-02-23T06:05:05;5.70;1.00
3005;DHT22;1512;51.486;6.610;2024-02-23T06:09:15;5.70;1.00
3005;DHT22;1512;51.486;6.610;2024-02-23T06:13:32;5.70;1.00
3005;DHT22;1512;51.486;6.610;2024-02-23T06:17:41;5.80;1.00
3005;DHT22;1512;51.486;6.610;2024-02-23T06:21:50;5.80;1.00
3005;DHT22;1512;51.486;6.610;2024-02-23T06:25:59;5.90;1.00
3005;DHT22;1512;51.486;6.610;2024-02-23T06:30:08;5.90;1.00
3005;DHT22;1512;51.486;6.610;2024-02-23T06:34:18;5.90;1.00
3005;DHT22;1512;51.486;6.610;2024-02-23T06:38:46;5.90;1.00
3005;DHT22;1512;51.486;6.610;2024-02-23T06:42:55;6.00;1.00
3005;DHT22;1512;51.486;6.610;2024-02-23T06:47:23;6.00;1.00
3005;DHT22;1512;51.486;6.610;2024-02-23T06:51:32;6.10;1.00
3005;DHT22;1512;51.486;6.610;2024-02-23T06:55:41;6.10;1.00
3005;DHT22;1512;51.486;6.610;2024-02-23T06:59:50;6.10;1.00
3005;DHT22;1512;51.486;6.610;2024-02-23T07:03:58;6.10;1.00
3005;DHT22;1512;51.486;6.610;2024-02-23T07:08:07;6.20;1.00
3005;DHT22;1512;51.486;6.610;2024-02-23T07:12:16;6.20;1.00
3005;DHT22;1512;51.486;6.610;2024-02-23T07:16:25;6.30;1.00
3005;DHT22;1512;51.486;6.610;2024-02-23T07:20:35;6.40;1.00
3005;DHT22;1512;51.486;6.610;2024-02-23T07:24:45;6.40;1.00
3005;DHT22;1512;51.486;6.610;2024-02-23T07:28:55;6.40;1.00
3005;DHT22;1512;51.486;6.610;2024-02-23T07:33:03;6.50;1.00
3005;DHT22;1512;51.486;6.610;2024-02-23T07:37:12;6.50;1.00
3005;DHT22;1512;51.486;6.610;2024-02-23T07:41:21;6.50;1.00
3005;DHT22;1512;51.486;6.610;2024-02-23T07:45:30;6.60;1.00
3005;DHT22;1512;51.486;6.610;2024-02-23T07:49:40;6.60;1.00
3005;DHT22;1512;51.486;6.610;2024-02-23T07:53:49;6.60;1.00
3005;DHT22;1512;51.486;6.610;2024-02-23T07:57:58;6.70;1.00
3005;DHT22;1512;51.486;6.610;2024-02-23T08:02:08;6.70;1.00
3005;DHT22;1512;51.486;6.610;2024-02-23T08:06:17;6.70;1.00
3005;DHT22;1512;51.486;6.610;2024-02-23T08:10:25;6.70;1.00
3005;DHT22;1512;51.486;6.610;2024-02-23T08:14:34;6.80;1.00
3005;DHT22;1512;51.486;6.610;2024-02-23T08:18:43;6.80;1.00
3005;DHT22;1512;51.486;6.610;2024-02-23T08:22:51;6.80;1.00
3005;DHT22;1512;51.486;6.610;2024-02-23T08:27:00;6.80;1.00
3005;DHT22;1512;51.486;6.610;2024-02-23T08:31:10;6.80;1.00
3005;DHT22;1512;51.486;6.610;2024-02-23T08:35:19;6.90;1.00
3005;DHT22;1512;51.486;6.610;2024-02-23T08:39:27;7.10;1.00
3005;DHT22;1512;51.486;6.610;2024-02-23T08:43:36;7.20;1.00
3005;DHT22;1512;51.486;6.610;2024-02-23T08:47:45;7.20;1.00
3005;DHT22;1512;51.486;6.610;2024-02-23T08:51:53;7.20;1.00
3005;DHT22;1512;51.486;6.610;2024-02-23T08:56:05;7.40;1.00
3005;DHT22;1512;51.486;6.610;2024-02-23T09:00:21;7.40;1.00
3005;DHT22;1512;51.486;6.610;2024-02-23T09:04:30;7.40;1.00
3005;DHT22;1512;51.486;6.610;2024-02-23T09:08:39;7.40;1.00
3005;DHT22;1512;51.486;6.610;2024-02-23T09:12:49;7.40;1.00
3005;DHT22;1512;51.486;6.610;2024-02-23T09:16:57;7.50;1.00
3005;DHT22;1512;51.486;6.610;2024-02-23T09:21:06;7.60;1.00
3005;DHT22;1512;51.486;6.610;2024-02-23T09:25:14;7.70;1.00
3005;DHT22;1512;51.486;6.610;2024-02-23T09:29:23;7.70;1.00
3005;DHT22;1512;51.486;6.610;2024-02-23T09:33:32;7.80;1.00
3005;DHT22;1512;51.486;6.610;2024-02-23T09:37:40;7.80;1.00
3005;DHT22;1512;51.486;6.610;2024-02-23T09:41:52;7.80;1.00
3005;DHT22;1512;51.486;6.610;2024-02-23T09:46:02;7.80;1.00
3005;DHT22;1512;51.486;6.610;2024-02-23T09:50:12;7.80;1.00
3005;DHT22;1512;51.486;6.610;2024-02-23T09:54:22;7.90;1.00
3005;DHT22;1512;51.486;6.610;2024-02-23T09:58:32;7.90;1.00
3005;DHT22;1512;51.486;6.610;2024-02-23T10:02:41;7.90;1.00
3005;DHT22;1512;51.486;6.610;2024-02-23T10:06:50;8.00;1.00
3005;DHT22;1512;51.486;6.610;2024-02-23T10:11:01;8.00;1.00
3005;DHT22;1512;51.486;6.610;2024-02-23T10:15:10;8.10;1.00
3005;DHT22;1512;51.486;6.610;2024-02-23T10:19:24;8.10;1.00
3005;DHT22;1512;51.486;6.610;2024-02-23T10:23:29;8.10;1.00
3005;DHT22;1512;51.486;6.610;2024-02-23T10:27:41;8.20;1.00
3005;DHT22;1512;51.486;6.610;2024-02-23T10:31:51;8.20;1.00
3005;DHT22;1512;51.486;6.610;2024-02-23T10:36:20;8.30;1.00
3005;DHT22;1512;51.486;6.610;2024-02-23T10:40:30;8.30;1.00
3005;DHT22;1512;51.486;6.610;2024-02-23T10:44:41;8.10;1.00
3005;DHT22;1512;51.486;6.610;2024-02-23T10:48:51;8.10;1.00
3005;DHT22;1512;51.486;6.610;2024-02-23T10:53:01;8.10;1.00
3005;DHT22;1512;51.486;6.610;2024-02-23T10:57:11;8.10;1.00
3005;DHT22;1512;51.486;6.610;2024-02-23T11:01:23;8.10;1.00
3005;DHT22;1512;51.486;6.610;2024-02-23T11:05:33;8.10;1.00
3005;DHT22;1512;51.486;6.610;2024-02-23T11:09:42;8.10;1.00
3005;DHT22;1512;51.486;6.610;2024-02-23T11:13:52;8.10;1.00
3005;DHT22;1512;51.486;6.610;2024-02-23T11:18:02;8.10;1.00
3005;DHT22;1512;51.486;6.610;2024-02-23T11:22:11;8.20;1.00
3005;DHT22;1512;51.486;6.610;2024-02-23T11:26:23;8.20;1.00
3005;DHT22;1512;51.486;6.610;2024-02-23T11:30:33;8.20;1.00
3005;DHT22;1512;51.486;6.610;2024-02-23T11:34:55;8.20;1.00
3005;DHT22;1512;51.486;6.610;2024-02-23T11:39:08;8.10;1.00
3005;DHT22;1512;51.486;6.610;2024-02-23T11:43:21;8.10;1.00
3005;DHT22;1512;51.486;6.610;2024-02-23T11:47:30;8.20;1.00
3005;DHT22;1512;51.486;6.610;2024-02-23T11:51:39;8.20;1.00
3005;DHT22;1512;51.486;6.610;2024-02-23T11:56:07;8.20;1.00
3005;DHT22;1512;51.486;6.610;2024-02-23T12:00:16;8.20;1.00
3005;DHT22;1512;51.486;6.610;2024-02-23T12:04:26;8.20;1.00
3005;DHT22;1512;51.486;6.610;2024-02-23T12:08:37;8.30;1.00
3005;DHT22;1512;51.486;6.610;2024-02-23T12:12:46;8.30;1.00
3005;DHT22;1512;51.486;6.610;2024-02-23T12:16:55;8.30;1.00
3005;DHT22;1512;51.486;6.610;2024-02-23T12:21:24;8.30;1.00
3005;DHT22;1512;51.486;6.610;2024-02-23T12:25:34;8.30;1.00
3005;DHT22;1512;51.486;6.610;2024-02-23T12:29:42;8.30;1.00
3005;DHT22;1512;51.486;6.610;2024-02-23T12:33:52;8.40;1.00
3005;DHT22;1512;51.486;6.610;2024-02-23T12:38:03;8.40;1.00
3005;DHT22;1512;51.486;6.610;2024-02-23T12:42:12;8.40;1.00
3005;DHT22;1512;51.486;6.610;2024-02-23T12:46:28;8.40;1.00
3005;DHT22;1512;51.486;6.610;2024-02-23T12:50:36;8.50;1.00
3005;DHT22;1512;51.486;6.610;2024-02-23T12:54:45;8.50;1.00
3005;DHT22;1512;51.486;6.610;2024-02-23T12:58:55;8.60;1.00
3005;DHT22;1512;51.486;6.610;2024-02-23T13:03:05;8.60;1.00
3005;DHT22;1512;51.486;6.610;2024-02-23T13:07:16;8.70;1.00
3005;DHT22;1512;51.486;6.610;2024-02-23T13:11:31;8.70;1.00
3005;DHT22;1512;51.486;6.610;2024-02-23T13:15:41;8.80;1.00
3005;DHT22;1512;51.486;6.610;2024-02-23T13:19:49;8.80;1.00
3005;DHT22;1512;51.486;6.610;2024-02-23T13:23:59;8.70;1.00
3005;DHT22;1512;51.486;6.610;2024-02-23T13:28:10;8.70;1.00
3005;DHT22;1512;51.486;6.610;2024-02-23T13:32:18;8.70;1.00
3005;DHT22;1512;51.486;6.610;2024-02-23T13:36:27;8.60;1.00
3005;DHT22;1512;51.486;6.610;2024-02-23T13:40:36;8.60;1.00
3005;DHT22;1512;51.486;6.610;2024-02-23T13:44:44;8.60;1.00
3005;DHT22;1512;51.486;6.610;2024-02-23T13:49:05;8.70;1.00
3005;DHT22;1512;51.486;6.610;2024-02-23T13:53:15;8.60;1.00
3005;DHT22;1512;51.486;6.610;2024-02-23T13:57:24;8.60;1.00
3005;DHT22;1512;51.486;6.610;2024-02-23T14:01:33;8.60;1.00
3005;DHT22;1512;51.486;6.610;2024-02-23T14:05:42;8.60;1.00
3005;DHT22;1512;51.486;6.610;2024-02-23T14:09:52;8.60;1.00
3005;DHT22;1512;51.486;6.610;2024-02-23T14:14:01;8.60;1.00
3005;DHT22;1512;51.486;6.610;2024-02-23T14:18:12;8.80;1.00
3005;DHT22;1512;51.486;6.610;2024-02-23T14:22:20;8.80;1.00
3005;DHT22;1512;51.486;6.610;2024-02-23T14:26:29;8.90;1.00
3005;DHT22;1512;51.486;6.610;2024-02-23T14:30:38;8.90;1.00
3005;DHT22;1512;51.486;6.610;2024-02-23T14:34:48;9.00;1.00
3005;DHT22;1512;51.486;6.610;2024-02-23T14:38:57;9.00;1.00
3005;DHT22;1512;51.486;6.610;2024-02-23T14:43:06;9.00;1.00
3005;DHT22;1512;51.486;6.610;2024-02-23T14:47:15;9.00;1.00
3005;DHT22;1512;51.486;6.610;2024-02-23T14:51:26;9.00;1.00
3005;DHT22;1512;51.486;6.610;2024-02-23T14:55:34;9.10;1.00
3005;DHT22;1512;51.486;6.610;2024-02-23T15:04:05;9.10;1.00
3005;DHT22;1512;51.486;6.610;2024-02-23T15:08:13;9.20;1.00
3005;DHT22;1512;51.486;6.610;2024-02-23T15:12:22;9.20;1.00
3005;DHT22;1512;51.486;6.610;2024-02-23T15:16:32;9.20;1.00
3005;DHT22;1512;51.486;6.610;2024-02-23T15:20:41;9.10;1.00
3005;DHT22;1512;51.486;6.610;2024-02-23T15:24:50;9.00;1.00
3005;DHT22;1512;51.486;6.610;2024-02-23T15:29:18;9.00;1.00
3005;DHT22;1512;51.486;6.610;2024-02-23T15:33:27;9.20;1.00
3005;DHT22;1512;51.486;6.610;2024-02-23T15:37:36;9.20;1.00
3005;DHT22;1512;51.486;6.610;2024-02-23T15:41:45;9.10;1.00
3005;DHT22;1512;51.486;6.610;2024-02-23T15:45:54;9.00;1.00
3005;DHT22;1512;51.486;6.610;2024-02-23T15:50:03;8.80;1.00
3005;DHT22;1512;51.486;6.610;2024-02-23T15:54:13;8.80;1.00
3005;DHT22;1512;51.486;6.610;2024-02-23T15:58:22;8.90;1.00
3005;DHT22;1512;51.486;6.610;2024-02-23T16:02:31;8.90;1.00
3005;DHT22;1512;51.486;6.610;2024-02-23T16:06:40;8.80;1.00
3005;DHT22;1512;51.486;6.610;2024-02-23T16:10:51;8.70;1.00
3005;DHT22;1512;51.486;6.610;2024-02-23T16:14:59;8.60;1.00
3005;DHT22;1512;51.486;6.610;2024-02-23T16:19:08;8.60;1.00
3005;DHT22;1512;51.486;6.610;2024-02-23T16:23:18;8.60;1.00
3005;DHT22;1512;51.486;6.610;2024-02-23T16:27:27;8.60;1.00
3005;DHT22;1512;51.486;6.610;2024-02-23T16:31:36;8.50;1.00
3005;DHT22;1512;51.486;6.610;2024-02-23T16:35:46;8.40;1.00
3005;DHT22;1512;51.486;6.610;2024-02-23T16:39:55;8.30;1.00
3005;DHT22;1512;51.486;6.610;2024-02-23T16:44:03;8.30;1.00
3005;DHT22;1512;51.486;6.610;2024-02-23T16:48:12;8.20;1.00
3005;DHT22;1512;51.486;6.610;2024-02-23T16:52:22;8.20;1.00
3005;DHT22;1512;51.486;6.610;2024-02-23T16:56:31;8.10;1.00
3005;DHT22;1512;51.486;6.610;2024-02-23T17:00:40;8.10;1.00
3005;DHT22;1512;51.486;6.610;2024-02-23T17:04:48;8.10;1.00
3005;DHT22;1512;51.486;6.610;2024-02-23T17:08:57;8.10;1.00
3005;DHT22;1512;51.486;6.610;2024-02-23T17:13:12;8.10;1.00
3005;DHT22;1512;51.486;6.610;2024-02-23T17:17:20;8.00;1.00
3005;DHT22;1512;51.486;6.610;2024-02-23T17:21:29;8.00;1.00
3005;DHT22;1512;51.486;6.610;2024-02-23T17:25:38;8.00;1.00
3005;DHT22;1512;51.486;6.610;2024-02-23T17:29:47;7.90;1.00
3005;DHT22;1512;51.486;6.610;2024-02-23T17:33:55;7.90;1.00
3005;DHT22;1512;51.486;6.610;2024-02-23T17:38:04;7.80;1.00
3005;DHT22;1512;51.486;6.610;2024-02-23T17:42:12;7.70;1.00
3005;DHT22;1512;51.486;6.610;2024-02-23T17:46:21;7.60;1.00
3005;DHT22;1512;51.486;6.610;2024-02-23T17:50:30;7.50;1.00
3005;DHT22;1512;51.486;6.610;2024-02-23T17:54:40;7.40;1.00
3005;DHT22;1512;51.486;6.610;2024-02-23T17:58:55;7.30;1.00
3005;DHT22;1512;51.486;6.610;2024-02-23T18:03:04;7.30;1.00
3005;DHT22;1512;51.486;6.610;2024-02-23T18:07:13;7.30;1.00
3005;DHT22;1512;51.486;6.610;2024-02-23T18:11:21;7.20;1.00
3005;DHT22;1512;51.486;6.610;2024-02-23T18:15:30;7.20;1.00
3005;DHT22;1512;51.486;6.610;2024-02-23T18:19:40;7.20;1.00
3005;DHT22;1512;51.486;6.610;2024-02-23T18:24:09;7.20;1.00
3005;DHT22;1512;51.486;6.610;2024-02-23T18:28:18;7.20;1.00
3005;DHT22;1512;51.486;6.610;2024-02-23T18:32:26;7.20;1.00
3005;DHT22;1512;51.486;6.610;2024-02-23T18:36:35;7.20;1.00
3005;DHT22;1512;51.486;6.610;2024-02-23T18:40:44;7.10;1.00
3005;DHT22;1512;51.486;6.610;2024-02-23T18:44:53;7.10;1.00
3005;DHT22;1512;51.486;6.610;2024-02-23T18:53:24;7.10;1.00
3005;DHT22;1512;51.486;6.610;2024-02-23T18:57:33;7.10;1.00
3005;DHT22;1512;51.486;6.610;2024-02-23T19:01:41;7.20;1.00
3005;DHT22;1512;51.486;6.610;2024-02-23T19:05:51;7.20;1.00
3005;DHT22;1512;51.486;6.610;2024-02-23T19:10:00;7.20;1.00
3005;DHT22;1512;51.486;6.610;2024-02-23T19:14:09;7.30;1.00
3005;DHT22;1512;51.486;6.610;2024-02-23T19:18:37;7.30;1.00
3005;DHT22;1512;51.486;6.610;2024-02-23T19:22:47;7.30;1.00
3005;DHT22;1512;51.486;6.610;2024-02-23T19:26:56;7.30;1.00
3005;DHT22;1512;51.486;6.610;2024-02-23T19:31:04;7.30;1.00
3005;DHT22;1512;51.486;6.610;2024-02-23T19:35:13;7.30;1.00
3005;DHT22;1512;51.486;6.610;2024-02-23T19:39:22;7.30;1.00
3005;DHT22;1512;51.486;6.610;2024-02-23T19:43:31;7.30;1.00
3005;DHT22;1512;51.486;6.610;2024-02-23T19:47:39;7.40;1.00
3005;DHT22;1512;51.486;6.610;2024-02-23T19:51:48;7.40;1.00
3005;DHT22;1512;51.486;6.610;2024-02-23T19:55:57;7.40;1.00
3005;DHT22;1512;51.486;6.610;2024-02-23T20:00:09;7.30;1.00
3005;DHT22;1512;51.486;6.610;2024-02-23T20:04:44;7.20;1.00
3005;DHT22;1512;51.486;6.610;2024-02-23T20:08:53;7.20;1.00
3005;DHT22;1512;51.486;6.610;2024-02-23T20:13:02;7.10;1.00
3005;DHT22;1512;51.486;6.610;2024-02-23T20:17:15;7.10;1.00
3005;DHT22;1512;51.486;6.610;2024-02-23T20:21:24;7.00;1.00
3005;DHT22;1512;51.486;6.610;2024-02-23T20:25:34;6.90;1.00
3005;DHT22;1512;51.486;6.610;2024-02-23T20:29:43;6.80;1.00
3005;DHT22;1512;51.486;6.610;2024-02-23T20:33:52;6.70;1.00
3005;DHT22;1512;51.486;6.610;2024-02-23T20:38:01;6.50;1.00
3005;DHT22;1512;51.486;6.610;2024-02-23T20:42:16;6.30;1.00
3005;DHT22;1512;51.486;6.610;2024-02-23T20:46:25;6.20;1.00
3005;DHT22;1512;51.486;6.610;2024-02-23T20:50:34;6.10;1.00
3005;DHT22;1512;51.486;6.610;2024-02-23T20:54:44;6.10;1.00
3005;DHT22;1512;51.486;6.610;2024-02-23T20:58:54;6.10;1.00
3005;DHT22;1512;51.486;6.610;2024-02-23T21:03:04;6.10;1.00
3005;DHT22;1512;51.486;6.610;2024-02-23T21:07:13;6.20;1.00
3005;DHT22;1512;51.486;6.610;2024-02-23T21:11:23;6.10;1.00
3005;DHT22;1512;51.486;6.610;2024-02-23T21:15:33;6.20;1.00
3005;DHT22;1512;51.486;6.610;2024-02-23T21:19:42;6.20;1.00
3005;DHT22;1512;51.486;6.610;2024-02-23T21:23:50;6.30;1.00
3005;DHT22;1512;51.486;6.610;2024-02-23T21:27:59;6.30;1.00
3005;DHT22;1512;51.486;6.610;2024-02-23T21:32:08;6.40;1.00
3005;DHT22;1512;51.486;6.610;2024-02-23T21:36:16;6.30;1.00
3005;DHT22;1512;51.486;6.610;2024-02-23T21:40:25;6.30;1.00
3005;DHT22;1512;51.486;6.610;2024-02-23T21:44:34;6.20;1.00
3005;DHT22;1512;51.486;6.610;2024-02-23T21:48:42;6.20;1.00
3005;DHT22;1512;51.486;6.610;2024-02-23T21:52:52;6.20;1.00
3005;DHT22;1512;51.486;6.610;2024-02-23T21:57:00;6.20;1.00
3005;DHT22;1512;51.486;6.610;2024-02-23T22:01:10;6.20;1.00
3005;DHT22;1512;51.486;6.610;2024-02-23T22:05:18;6.30;1.00
3005;DHT22;1512;51.486;6.610;2024-02-23T22:09:27;6.30;1.00
3005;DHT22;1512;51.486;6.610;2024-02-23T22:13:36;6.30;1.00
3005;DHT22;1512;51.486;6.610;2024-02-23T22:17:44;6.40;1.00
3005;DHT22;1512;51.486;6.610;2024-02-23T22:21:53;6.40;1.00
3005;DHT22;1512;51.486;6.610;2024-02-23T22:26:02;6.40;1.00
3005;DHT22;1512;51.486;6.610;2024-02-23T22:30:11;6.50;1.00
3005;DHT22;1512;51.486;6.610;2024-02-23T22:34:20;6.50;1.00
3005;DHT22;1512;51.486;6.610;2024-02-23T22:38:29;6.50;1.00
3005;DHT22;1512;51.486;6.610;2024-02-23T22:42:37;6.50;1.00
3005;DHT22;1512;51.486;6.610;2024-02-23T22:46:47;6.50;1.00
3005;DHT22;1512;51.486;6.610;2024-02-23T22:50:56;6.50;1.00
3005;DHT22;1512;51.486;6.610;2024-02-23T22:55:05;6.50;1.00
3005;DHT22;1512;51.486;6.610;2024-02-23T22:59:14;6.50;1.00
3005;DHT22;1512;51.486;6.610;2024-02-23T23:03:22;6.50;1.00
3005;DHT22;1512;51.486;6.610;2024-02-23T23:07:31;6.40;1.00
3005;DHT22;1512;51.486;6.610;2024-02-23T23:11:41;6.30;1.00
3005;DHT22;1512;51.486;6.610;2024-02-23T23:15:50;6.30;1.00
3005;DHT22;1512;51.486;6.610;2024-02-23T23:19:59;6.20;1.00
3005;DHT22;1512;51.486;6.610;2024-02-23T23:24:09;6.10;1.00
3005;DHT22;1512;51.486;6.610;2024-02-23T23:28:17;6.10;1.00
3005;DHT22;1512;51.486;6.610;2024-02-23T23:32:26;6.00;1.00
3005;DHT22;1512;51.486;6.610;2024-02-23T23:36:35;5.90;1.00
3005;DHT22;1512;51.486;6.610;2024-02-23T23:40:43;5.90;1.00
3005;DHT22;1512;51.486;6.610;2024-02-23T23:44:52;5.90;1.00
3005;DHT22;1512;51.486;6.610;2024-02-23T23:49:01;5.80;1.00
3005;DHT22;1512;51.486;6.610;2024-02-23T23:53:09;5.80;1.00
3005;DHT22;1512;51.486;6.610;2024-02-23T23:57:18;5.70;1.00
